createdAt,value
2023-04-05T06:20:34.764Z,1017.19
2023-04-05T06:30:34.733Z,1017.25
2023-04-05T06:40:34.787Z,1017.17
2023-04-05T06:50:34.650Z,1017.18
2023-04-05T07:00:34.810Z,1017.25
2023-04-05T07:10:34.693Z,1017.23
2023-04-05T07:20:34.629Z,1017.19
2023-04-05T07:30:34.793Z,1017.13
2023-04-05T07:40:34.763Z,1017.18
2023-04-05T07:50:34.740Z,1017.18
2023-04-05T08:00:34.794Z,1017.21
2023-04-05T08:10:34.651Z,1017.14
2023-04-05T08:20:34.824Z,1017.12
2023-04-05T08:30:34.788Z,1016.99
2023-04-05T08:40:34.820Z,1016.89
2023-04-05T08:50:35.037Z,1016.75
2023-04-05T09:00:35.296Z,1016.49
2023-04-05T09:10:35.175Z,1016.46
2023-04-05T09:20:35.224Z,1016.59
2023-04-05T09:30:35.190Z,1016.44
2023-04-05T09:40:35.456Z,1016.38
2023-04-05T09:50:35.318Z,1016.33
2023-04-05T10:00:35.119Z,1016.36
2023-04-05T10:10:35.121Z,1016.25
2023-04-05T10:20:35.300Z,1016.27
2023-04-05T10:30:35.198Z,1016.18
2023-04-05T10:40:35.252Z,1016.20
2023-04-05T10:50:35.212Z,1015.95
2023-04-05T11:00:35.275Z,1015.77
2023-04-05T11:10:35.347Z,1015.78
2023-04-05T11:20:35.187Z,1015.72
2023-04-05T11:30:35.149Z,1015.57
2023-04-05T11:40:35.125Z,1015.57
2023-04-05T11:50:35.186Z,1015.35
2023-04-05T12:00:35.248Z,1015.33
2023-04-05T12:10:35.110Z,1015.13
2023-04-05T12:20:35.282Z,1015.17
2023-04-05T12:30:35.235Z,1015.04
2023-04-05T12:40:35.117Z,1014.92
2023-04-05T12:50:35.157Z,1014.79
2023-04-05T13:00:35.103Z,1014.79
2023-04-05T13:10:35.203Z,1014.65
2023-04-05T13:20:35.295Z,1014.58
2023-04-05T13:30:35.259Z,1014.38
2023-04-05T13:40:35.407Z,1014.35
2023-04-05T13:50:35.261Z,1014.29
2023-04-05T14:00:35.224Z,1014.11
2023-04-05T14:10:35.390Z,1013.99
2023-04-05T14:20:35.483Z,1013.84
2023-04-05T14:30:35.218Z,1013.78
2023-04-05T14:40:35.361Z,1013.74
2023-04-05T14:50:35.309Z,1013.69
2023-04-05T15:00:35.534Z,1013.60
2023-04-05T15:10:35.388Z,1013.60
2023-04-05T15:20:35.460Z,1013.58
2023-04-05T15:30:35.414Z,1013.68
2023-04-05T15:40:35.482Z,1013.60
2023-04-05T15:50:35.457Z,1013.53
2023-04-05T16:00:35.499Z,1013.47
2023-04-05T16:10:35.350Z,1013.51
2023-04-05T16:20:35.489Z,1013.46
2023-04-05T16:30:35.813Z,1013.43
2023-04-05T16:40:35.669Z,1013.50
2023-04-05T16:50:35.424Z,1013.51
2023-04-05T17:00:35.475Z,1013.43
2023-04-05T17:10:35.596Z,1013.36
2023-04-05T17:20:35.635Z,1013.35
2023-04-05T17:30:35.379Z,1013.20
2023-04-05T17:40:35.562Z,1013.28
2023-04-05T17:50:35.523Z,1013.36
2023-04-05T18:00:35.534Z,1013.53
2023-04-05T18:10:35.556Z,1013.63
2023-04-05T18:20:35.616Z,1013.63
2023-04-05T18:30:35.673Z,1013.67
2023-04-05T18:40:35.847Z,1013.71
2023-04-05T18:50:35.810Z,1013.64
2023-04-05T19:00:35.612Z,1013.77
2023-04-05T19:10:35.677Z,1013.85
2023-04-05T19:20:35.486Z,1013.89
